sensor_id;sensor_type;location;lat;lon;timestamp;P1;durP1;ratioP1;P2;durP2;ratioP2
20379;SDS011;10349;48.666;8.948;2023-01-05T00:02:12;0.90;;;0.80;;
20379;SDS011;10349;48.666;8.948;2023-01-05T00:04:38;1.10;;;0.80;;
20379;SDS011;10349;48.666;8.948;2023-01-05T00:07:04;1.43;;;1.00;;
20379;SDS011;10349;48.666;8.948;2023-01-05T00:09:29;1.43;;;1.00;;
20379;SDS011;10349;48.666;8.948;2023-01-05T00:11:55;3.13;;;0.87;;
20379;SDS011;10349;48.666;8.948;2023-01-05T00:14:40;1.00;;;0.90;;
20379;SDS011;10349;48.666;8.948;2023-01-05T00:17:24;1.30;;;0.93;;
20379;SDS011;10349;48.666;8.948;2023-01-05T00:20:12;2.30;;;0.87;;
20379;SDS011;10349;48.666;8.948;2023-01-05T00:22:59;2.00;;;0.70;;
20379;SDS011;10349;48.666;8.948;2023-01-05T00:25:30;1.77;;;0.60;;
20379;SDS011;10349;48.666;8.948;2023-01-05T00:27:57;1.10;;;0.70;;
20379;SDS011;10349;48.666;8.948;2023-01-05T00:30:28;0.90;;;0.60;;
20379;SDS011;10349;48.666;8.948;2023-01-05T00:32:56;1.70;;;0.93;;
20379;SDS011;10349;48.666;8.948;2023-01-05T00:35:22;1.10;;;0.90;;
20379;SDS011;10349;48.666;8.948;2023-01-05T00:37:48;0.90;;;0.80;;
20379;SDS011;10349;48.666;8.948;2023-01-05T00:40:16;2.60;;;1.07;;
20379;SDS011;10349;48.666;8.948;2023-01-05T00:42:44;1.33;;;0.90;;
20379;SDS011;10349;48.666;8.948;2023-01-05T00:45:11;0.97;;;0.87;;
20379;SDS011;10349;48.666;8.948;2023-01-05T00:47:39;1.00;;;0.90;;
20379;SDS011;10349;48.666;8.948;2023-01-05T00:50:05;0.97;;;0.87;;
20379;SDS011;10349;48.666;8.948;2023-01-05T00:52:33;1.00;;;0.87;;
20379;SDS011;10349;48.666;8.948;2023-01-05T00:54:59;0.90;;;0.70;;
20379;SDS011;10349;48.666;8.948;2023-01-05T00:57:26;1.10;;;0.80;;
20379;SDS011;10349;48.666;8.948;2023-01-05T00:59:53;1.10;;;0.80;;
20379;SDS011;10349;48.666;8.948;2023-01-05T01:02:19;0.90;;;0.70;;
20379;SDS011;10349;48.666;8.948;2023-01-05T01:04:45;0.80;;;0.60;;
20379;SDS011;10349;48.666;8.948;2023-01-05T01:07:10;0.80;;;0.70;;
20379;SDS011;10349;48.666;8.948;2023-01-05T01:09:36;0.80;;;0.70;;
20379;SDS011;10349;48.666;8.948;2023-01-05T01:12:03;0.90;;;0.60;;
20379;SDS011;10349;48.666;8.948;2023-01-05T01:14:29;0.90;;;0.70;;
20379;SDS011;10349;48.666;8.948;2023-01-05T01:16:54;0.90;;;0.63;;
20379;SDS011;10349;48.666;8.948;2023-01-05T01:19:22;0.90;;;0.70;;
20379;SDS011;10349;48.666;8.948;2023-01-05T01:21:51;0.80;;;0.60;;
20379;SDS011;10349;48.666;8.948;2023-01-05T01:24:21;0.80;;;0.57;;
20379;SDS011;10349;48.666;8.948;2023-01-05T01:26:49;0.90;;;0.60;;
20379;SDS011;10349;48.666;8.948;2023-01-05T01:29:15;0.90;;;0.70;;
20379;SDS011;10349;48.666;8.948;2023-01-05T01:31:45;0.80;;;0.60;;
20379;SDS011;10349;48.666;8.948;2023-01-05T01:34:12;1.10;;;0.90;;
20379;SDS011;10349;48.666;8.948;2023-01-05T01:36:39;0.80;;;0.60;;
20379;SDS011;10349;48.666;8.948;2023-01-05T01:39:05;1.00;;;0.77;;
20379;SDS011;10349;48.666;8.948;2023-01-05T01:41:33;0.93;;;0.70;;
20379;SDS011;10349;48.666;8.948;2023-01-05T01:44:00;0.80;;;0.57;;
20379;SDS011;10349;48.666;8.948;2023-01-05T01:46:26;0.80;;;0.60;;
20379;SDS011;10349;48.666;8.948;2023-01-05T01:51:41;0.80;;;0.60;;
20379;SDS011;10349;48.666;8.948;2023-01-05T01:54:10;0.90;;;0.60;;
20379;SDS011;10349;48.666;8.948;2023-01-05T01:56:43;0.90;;;0.60;;
20379;SDS011;10349;48.666;8.948;2023-01-05T01:59:12;0.90;;;0.60;;
20379;SDS011;10349;48.666;8.948;2023-01-05T02:01:38;0.90;;;0.63;;
20379;SDS011;10349;48.666;8.948;2023-01-05T02:04:04;1.30;;;0.50;;
20379;SDS011;10349;48.666;8.948;2023-01-05T02:06:32;0.80;;;0.60;;
20379;SDS011;10349;48.666;8.948;2023-01-05T02:08:58;0.80;;;0.50;;
20379;SDS011;10349;48.666;8.948;2023-01-05T02:24:50;1.00;;;0.60;;
20379;SDS011;10349;48.666;8.948;2023-01-05T02:35:41;0.80;;;0.60;;
20379;SDS011;10349;48.666;8.948;2023-01-05T02:38:40;0.80;;;0.53;;
20379;SDS011;10349;48.666;8.948;2023-01-05T02:41:12;0.90;;;0.60;;
20379;SDS011;10349;48.666;8.948;2023-01-05T02:43:54;0.97;;;0.60;;
20379;SDS011;10349;48.666;8.948;2023-01-05T02:46:21;0.87;;;0.67;;
20379;SDS011;10349;48.666;8.948;2023-01-05T02:48:47;0.90;;;0.70;;
20379;SDS011;10349;48.666;8.948;2023-01-05T02:51:17;0.80;;;0.70;;
20379;SDS011;10349;48.666;8.948;2023-01-05T02:53:50;0.80;;;0.60;;
20379;SDS011;10349;48.666;8.948;2023-01-05T02:56:22;0.70;;;0.50;;
20379;SDS011;10349;48.666;8.948;2023-01-05T02:58:57;1.67;;;0.60;;
20379;SDS011;10349;48.666;8.948;2023-01-05T03:01:52;0.93;;;0.60;;
20379;SDS011;10349;48.666;8.948;2023-01-05T03:04:24;0.70;;;0.50;;
20379;SDS011;10349;48.666;8.948;2023-01-05T03:07:06;0.80;;;0.60;;
20379;SDS011;10349;48.666;8.948;2023-01-05T03:09:37;0.77;;;0.50;;
20379;SDS011;10349;48.666;8.948;2023-01-05T03:15:15;0.80;;;0.60;;
20379;SDS011;10349;48.666;8.948;2023-01-05T03:17:55;0.80;;;0.50;;
20379;SDS011;10349;48.666;8.948;2023-01-05T03:20:25;0.80;;;0.53;;
20379;SDS011;10349;48.666;8.948;2023-01-05T03:22:54;0.83;;;0.60;;
20379;SDS011;10349;48.666;8.948;2023-01-05T03:25:40;0.70;;;0.50;;
20379;SDS011;10349;48.666;8.948;2023-01-05T03:28:29;0.90;;;0.50;;
20379;SDS011;10349;48.666;8.948;2023-01-05T03:31:47;0.80;;;0.70;;
20379;SDS011;10349;48.666;8.948;2023-01-05T03:34:54;1.00;;;0.60;;
20379;SDS011;10349;48.666;8.948;2023-01-05T03:40:27;0.80;;;0.50;;
20379;SDS011;10349;48.666;8.948;2023-01-05T03:42:55;0.80;;;0.50;;
20379;SDS011;10349;48.666;8.948;2023-01-05T03:45:22;0.80;;;0.50;;
20379;SDS011;10349;48.666;8.948;2023-01-05T03:47:51;0.80;;;0.50;;
20379;SDS011;10349;48.666;8.948;2023-01-05T03:50:22;0.73;;;0.50;;
20379;SDS011;10349;48.666;8.948;2023-01-05T03:52:47;1.20;;;0.60;;
20379;SDS011;10349;48.666;8.948;2023-01-05T03:55:13;0.80;;;0.50;;
20379;SDS011;10349;48.666;8.948;2023-01-05T03:57:39;0.80;;;0.50;;
20379;SDS011;10349;48.666;8.948;2023-01-05T04:00:06;0.83;;;0.60;;
20379;SDS011;10349;48.666;8.948;2023-01-05T04:02:43;0.80;;;0.50;;
20379;SDS011;10349;48.666;8.948;2023-01-05T04:05:10;0.80;;;0.50;;
20379;SDS011;10349;48.666;8.948;2023-01-05T04:07:37;0.80;;;0.50;;
20379;SDS011;10349;48.666;8.948;2023-01-05T04:10:03;0.80;;;0.57;;
20379;SDS011;10349;48.666;8.948;2023-01-05T04:12:29;0.80;;;0.50;;
20379;SDS011;10349;48.666;8.948;2023-01-05T04:14:56;0.90;;;0.60;;
20379;SDS011;10349;48.666;8.948;2023-01-05T04:17:21;1.10;;;0.70;;
20379;SDS011;10349;48.666;8.948;2023-01-05T04:19:47;0.80;;;0.50;;
20379;SDS011;10349;48.666;8.948;2023-01-05T04:22:13;0.80;;;0.50;;
20379;SDS011;10349;48.666;8.948;2023-01-05T04:24:39;0.80;;;0.50;;
20379;SDS011;10349;48.666;8.948;2023-01-05T04:27:04;0.80;;;0.50;;
20379;SDS011;10349;48.666;8.948;2023-01-05T04:29:30;0.80;;;0.60;;
20379;SDS011;10349;48.666;8.948;2023-01-05T04:31:58;0.80;;;0.50;;
20379;SDS011;10349;48.666;8.948;2023-01-05T04:34:24;0.80;;;0.50;;
20379;SDS011;10349;48.666;8.948;2023-01-05T04:36:53;0.80;;;0.50;;
20379;SDS011;10349;48.666;8.948;2023-01-05T04:39:20;0.80;;;0.50;;
20379;SDS011;10349;48.666;8.948;2023-01-05T04:41:48;0.80;;;0.50;;
20379;SDS011;10349;48.666;8.948;2023-01-05T04:44:16;0.80;;;0.60;;
20379;SDS011;10349;48.666;8.948;2023-01-05T04:46:43;0.80;;;0.60;;
20379;SDS011;10349;48.666;8.948;2023-01-05T04:49:10;0.70;;;0.50;;
20379;SDS011;10349;48.666;8.948;2023-01-05T04:51:37;1.40;;;0.50;;
20379;SDS011;10349;48.666;8.948;2023-01-05T04:54:05;0.80;;;0.50;;
20379;SDS011;10349;48.666;8.948;2023-01-05T04:56:32;0.70;;;0.50;;
20379;SDS011;10349;48.666;8.948;2023-01-05T04:59:00;0.80;;;0.50;;
20379;SDS011;10349;48.666;8.948;2023-01-05T05:01:27;0.80;;;0.50;;
20379;SDS011;10349;48.666;8.948;2023-01-05T05:03:54;0.70;;;0.50;;
20379;SDS011;10349;48.666;8.948;2023-01-05T05:06:22;0.70;;;0.50;;
20379;SDS011;10349;48.666;8.948;2023-01-05T05:08:49;0.70;;;0.50;;
20379;SDS011;10349;48.666;8.948;2023-01-05T05:11:15;0.80;;;0.50;;
20379;SDS011;10349;48.666;8.948;2023-01-05T05:13:41;0.83;;;0.57;;
20379;SDS011;10349;48.666;8.948;2023-01-05T05:16:07;0.80;;;0.50;;
20379;SDS011;10349;48.666;8.948;2023-01-05T05:18:33;0.70;;;0.50;;
20379;SDS011;10349;48.666;8.948;2023-01-05T05:20:59;0.80;;;0.50;;
20379;SDS011;10349;48.666;8.948;2023-01-05T05:23:29;0.80;;;0.50;;
20379;SDS011;10349;48.666;8.948;2023-01-05T05:25:57;0.90;;;0.50;;
20379;SDS011;10349;48.666;8.948;2023-01-05T05:28:23;0.70;;;0.50;;
20379;SDS011;10349;48.666;8.948;2023-01-05T05:30:55;0.70;;;0.50;;
20379;SDS011;10349;48.666;8.948;2023-01-05T05:33:22;0.80;;;0.50;;
20379;SDS011;10349;48.666;8.948;2023-01-05T05:35:48;0.80;;;0.50;;
20379;SDS011;10349;48.666;8.948;2023-01-05T05:38:14;0.80;;;0.50;;
20379;SDS011;10349;48.666;8.948;2023-01-05T05:40:39;0.70;;;0.50;;
20379;SDS011;10349;48.666;8.948;2023-01-05T05:43:05;0.70;;;0.50;;
20379;SDS011;10349;48.666;8.948;2023-01-05T05:45:32;0.90;;;0.50;;
20379;SDS011;10349;48.666;8.948;2023-01-05T05:47:58;0.80;;;0.50;;
20379;SDS011;10349;48.666;8.948;2023-01-05T05:50:26;0.80;;;0.50;;
20379;SDS011;10349;48.666;8.948;2023-01-05T05:52:52;0.80;;;0.60;;
20379;SDS011;10349;48.666;8.948;2023-01-05T05:55:17;0.80;;;0.50;;
20379;SDS011;10349;48.666;8.948;2023-01-05T05:57:43;0.90;;;0.60;;
20379;SDS011;10349;48.666;8.948;2023-01-05T06:00:09;0.87;;;0.60;;
20379;SDS011;10349;48.666;8.948;2023-01-05T06:02:38;1.00;;;0.70;;
20379;SDS011;10349;48.666;8.948;2023-01-05T06:05:04;0.80;;;0.60;;
20379;SDS011;10349;48.666;8.948;2023-01-05T06:07:30;0.90;;;0.60;;
20379;SDS011;10349;48.666;8.948;2023-01-05T06:09:56;0.80;;;0.60;;
20379;SDS011;10349;48.666;8.948;2023-01-05T06:12:22;0.80;;;0.50;;
20379;SDS011;10349;48.666;8.948;2023-01-05T06:14:50;1.00;;;0.70;;
20379;SDS011;10349;48.666;8.948;2023-01-05T06:17:16;1.00;;;0.60;;
20379;SDS011;10349;48.666;8.948;2023-01-05T06:19:41;0.90;;;0.60;;
20379;SDS011;10349;48.666;8.948;2023-01-05T06:22:07;0.80;;;0.50;;
20379;SDS011;10349;48.666;8.948;2023-01-05T06:24:32;0.83;;;0.53;;
20379;SDS011;10349;48.666;8.948;2023-01-05T06:26:58;1.73;;;0.70;;
20379;SDS011;10349;48.666;8.948;2023-01-05T06:29:24;0.80;;;0.50;;
20379;SDS011;10349;48.666;8.948;2023-01-05T06:31:50;0.80;;;0.50;;
20379;SDS011;10349;48.666;8.948;2023-01-05T06:34:15;0.90;;;0.50;;
20379;SDS011;10349;48.666;8.948;2023-01-05T06:36:41;0.80;;;0.50;;
20379;SDS011;10349;48.666;8.948;2023-01-05T06:39:07;0.70;;;0.50;;
20379;SDS011;10349;48.666;8.948;2023-01-05T06:41:32;0.70;;;0.50;;
20379;SDS011;10349;48.666;8.948;2023-01-05T06:43:59;0.80;;;0.70;;
20379;SDS011;10349;48.666;8.948;2023-01-05T06:46:25;0.80;;;0.50;;
20379;SDS011;10349;48.666;8.948;2023-01-05T06:48:51;0.90;;;0.60;;
20379;SDS011;10349;48.666;8.948;2023-01-05T06:51:17;0.70;;;0.50;;
20379;SDS011;10349;48.666;8.948;2023-01-05T06:53:43;0.80;;;0.67;;
20379;SDS011;10349;48.666;8.948;2023-01-05T06:56:08;0.80;;;0.50;;
20379;SDS011;10349;48.666;8.948;2023-01-05T06:58:34;0.80;;;0.60;;
20379;SDS011;10349;48.666;8.948;2023-01-05T07:01:00;0.80;;;0.50;;
20379;SDS011;10349;48.666;8.948;2023-01-05T07:03:25;3.17;;;0.50;;
20379;SDS011;10349;48.666;8.948;2023-01-05T07:05:51;0.80;;;0.50;;
20379;SDS011;10349;48.666;8.948;2023-01-05T07:08:17;1.03;;;0.50;;
20379;SDS011;10349;48.666;8.948;2023-01-05T07:10:42;0.80;;;0.50;;
20379;SDS011;10349;48.666;8.948;2023-01-05T07:13:08;0.80;;;0.60;;
20379;SDS011;10349;48.666;8.948;2023-01-05T07:15:34;0.80;;;0.50;;
20379;SDS011;10349;48.666;8.948;2023-01-05T07:17:59;0.80;;;0.60;;
20379;SDS011;10349;48.666;8.948;2023-01-05T07:20:25;0.80;;;0.60;;
20379;SDS011;10349;48.666;8.948;2023-01-05T07:22:51;1.73;;;0.63;;
20379;SDS011;10349;48.666;8.948;2023-01-05T07:25:16;0.90;;;0.60;;
20379;SDS011;10349;48.666;8.948;2023-01-05T07:27:42;0.93;;;0.77;;
20379;SDS011;10349;48.666;8.948;2023-01-05T07:30:08;1.87;;;1.03;;
20379;SDS011;10349;48.666;8.948;2023-01-05T07:32:34;1.03;;;0.70;;
20379;SDS011;10349;48.666;8.948;2023-01-05T07:35:00;1.10;;;0.77;;
20379;SDS011;10349;48.666;8.948;2023-01-05T07:37:26;1.17;;;0.67;;
20379;SDS011;10349;48.666;8.948;2023-01-05T07:39:52;1.00;;;0.80;;
20379;SDS011;10349;48.666;8.948;2023-01-05T07:42:17;3.13;;;0.77;;
20379;SDS011;10349;48.666;8.948;2023-01-05T07:44:45;1.00;;;0.87;;
20379;SDS011;10349;48.666;8.948;2023-01-05T07:47:11;0.90;;;0.70;;
20379;SDS011;10349;48.666;8.948;2023-01-05T07:49:37;1.00;;;0.77;;
20379;SDS011;10349;48.666;8.948;2023-01-05T07:52:03;2.50;;;1.10;;
20379;SDS011;10349;48.666;8.948;2023-01-05T07:54:28;0.97;;;0.80;;
20379;SDS011;10349;48.666;8.948;2023-01-05T07:56:54;1.10;;;0.97;;
20379;SDS011;10349;48.666;8.948;2023-01-05T07:59:20;1.50;;;1.23;;
20379;SDS011;10349;48.666;8.948;2023-01-05T08:01:46;1.20;;;1.07;;
20379;SDS011;10349;48.666;8.948;2023-01-05T08:04:12;1.57;;;0.90;;
20379;SDS011;10349;48.666;8.948;2023-01-05T08:06:38;4.13;;;1.13;;
20379;SDS011;10349;48.666;8.948;2023-01-05T08:09:03;1.30;;;1.20;;
20379;SDS011;10349;48.666;8.948;2023-01-05T08:11:49;2.20;;;1.07;;
20379;SDS011;10349;48.666;8.948;2023-01-05T08:14:15;2.70;;;1.40;;
20379;SDS011;10349;48.666;8.948;2023-01-05T08:16:41;1.00;;;0.90;;
20379;SDS011;10349;48.666;8.948;2023-01-05T08:19:07;3.50;;;2.20;;
20379;SDS011;10349;48.666;8.948;2023-01-05T08:21:34;5.93;;;3.47;;
20379;SDS011;10349;48.666;8.948;2023-01-05T08:24:00;4.23;;;1.27;;
20379;SDS011;10349;48.666;8.948;2023-01-05T08:26:26;1.67;;;0.93;;
20379;SDS011;10349;48.666;8.948;2023-01-05T08:28:54;1.30;;;0.90;;
20379;SDS011;10349;48.666;8.948;2023-01-05T08:31:22;1.57;;;1.30;;
20379;SDS011;10349;48.666;8.948;2023-01-05T08:33:50;2.00;;;1.23;;
20379;SDS011;10349;48.666;8.948;2023-01-05T08:36:19;2.30;;;1.03;;
20379;SDS011;10349;48.666;8.948;2023-01-05T08:38:45;1.73;;;1.63;;
20379;SDS011;10349;48.666;8.948;2023-01-05T08:41:30;4.90;;;1.43;;
20379;SDS011;10349;48.666;8.948;2023-01-05T08:44:00;3.10;;;1.37;;
20379;SDS011;10349;48.666;8.948;2023-01-05T08:46:29;1.23;;;1.10;;
20379;SDS011;10349;48.666;8.948;2023-01-05T08:48:57;2.03;;;1.37;;
20379;SDS011;10349;48.666;8.948;2023-01-05T08:51:24;2.17;;;1.40;;
20379;SDS011;10349;48.666;8.948;2023-01-05T08:53:51;4.83;;;1.50;;
20379;SDS011;10349;48.666;8.948;2023-01-05T08:56:17;8.17;;;1.20;;
20379;SDS011;10349;48.666;8.948;2023-01-05T08:58:43;8.73;;;1.47;;
20379;SDS011;10349;48.666;8.948;2023-01-05T09:01:13;10.53;;;1.43;;
20379;SDS011;10349;48.666;8.948;2023-01-05T09:03:40;2.13;;;1.33;;
20379;SDS011;10349;48.666;8.948;2023-01-05T09:06:07;6.73;;;1.50;;
20379;SDS011;10349;48.666;8.948;2023-01-05T09:08:36;3.90;;;1.60;;
20379;SDS011;10349;48.666;8.948;2023-01-05T09:11:07;7.03;;;1.23;;
20379;SDS011;10349;48.666;8.948;2023-01-05T09:13:34;12.20;;;1.90;;
20379;SDS011;10349;48.666;8.948;2023-01-05T09:16:06;3.23;;;1.43;;
20379;SDS011;10349;48.666;8.948;2023-01-05T09:18:34;5.10;;;1.60;;
20379;SDS011;10349;48.666;8.948;2023-01-05T09:21:00;1.50;;;1.40;;
20379;SDS011;10349;48.666;8.948;2023-01-05T09:23:26;2.80;;;1.53;;
20379;SDS011;10349;48.666;8.948;2023-01-05T09:25:52;8.10;;;1.87;;
20379;SDS011;10349;48.666;8.948;2023-01-05T09:28:17;4.27;;;2.67;;
20379;SDS011;10349;48.666;8.948;2023-01-05T09:30:43;6.77;;;2.27;;
20379;SDS011;10349;48.666;8.948;2023-01-05T09:33:09;5.20;;;2.63;;
20379;SDS011;10349;48.666;8.948;2023-01-05T09:35:34;3.03;;;2.03;;
20379;SDS011;10349;48.666;8.948;2023-01-05T09:38:00;3.03;;;2.73;;
20379;SDS011;10349;48.666;8.948;2023-01-05T09:40:26;4.67;;;3.07;;
20379;SDS011;10349;48.666;8.948;2023-01-05T09:42:52;15.00;;;3.80;;
20379;SDS011;10349;48.666;8.948;2023-01-05T09:45:25;2.20;;;1.40;;
20379;SDS011;10349;48.666;8.948;2023-01-05T09:47:54;1.53;;;1.27;;
20379;SDS011;10349;48.666;8.948;2023-01-05T09:50:23;2.40;;;1.30;;
20379;SDS011;10349;48.666;8.948;2023-01-05T09:52:52;5.60;;;1.60;;
20379;SDS011;10349;48.666;8.948;2023-01-05T09:55:22;4.23;;;1.20;;
20379;SDS011;10349;48.666;8.948;2023-01-05T09:57:52;7.43;;;1.10;;
20379;SDS011;10349;48.666;8.948;2023-01-05T10:00:22;3.93;;;1.10;;
20379;SDS011;10349;48.666;8.948;2023-01-05T10:02:50;4.40;;;1.43;;
20379;SDS011;10349;48.666;8.948;2023-01-05T10:05:26;5.93;;;2.10;;
20379;SDS011;10349;48.666;8.948;2023-01-05T10:07:57;4.10;;;1.57;;
20379;SDS011;10349;48.666;8.948;2023-01-05T10:13:32;5.43;;;1.57;;
20379;SDS011;10349;48.666;8.948;2023-01-05T10:16:02;6.23;;;2.10;;
20379;SDS011;10349;48.666;8.948;2023-01-05T10:18:28;8.77;;;2.50;;
20379;SDS011;10349;48.666;8.948;2023-01-05T10:26:32;3.30;;;2.20;;
20379;SDS011;10349;48.666;8.948;2023-01-05T10:29:21;3.00;;;1.50;;
20379;SDS011;10349;48.666;8.948;2023-01-05T10:31:58;4.20;;;1.50;;
20379;SDS011;10349;48.666;8.948;2023-01-05T10:34:36;7.20;;;2.30;;
20379;SDS011;10349;48.666;8.948;2023-01-05T10:45:48;1.50;;;1.40;;
20379;SDS011;10349;48.666;8.948;2023-01-05T10:48:15;2.70;;;1.33;;
20379;SDS011;10349;48.666;8.948;2023-01-05T10:50:47;4.67;;;1.60;;
20379;SDS011;10349;48.666;8.948;2023-01-05T10:53:21;1.70;;;1.37;;
20379;SDS011;10349;48.666;8.948;2023-01-05T10:58:25;3.07;;;1.77;;
20379;SDS011;10349;48.666;8.948;2023-01-05T11:00:57;6.33;;;1.73;;
20379;SDS011;10349;48.666;8.948;2023-01-05T11:03:44;1.10;;;1.00;;
20379;SDS011;10349;48.666;8.948;2023-01-05T11:06:22;2.73;;;1.67;;
20379;SDS011;10349;48.666;8.948;2023-01-05T11:08:52;7.40;;;1.70;;
20379;SDS011;10349;48.666;8.948;2023-01-05T11:11:25;7.90;;;1.63;;
20379;SDS011;10349;48.666;8.948;2023-01-05T11:13:54;2.50;;;1.50;;
20379;SDS011;10349;48.666;8.948;2023-01-05T11:16:22;7.00;;;1.93;;
20379;SDS011;10349;48.666;8.948;2023-01-05T11:18:59;6.90;;;2.10;;
20379;SDS011;10349;48.666;8.948;2023-01-05T11:24:02;2.77;;;1.70;;
20379;SDS011;10349;48.666;8.948;2023-01-05T11:31:27;2.60;;;1.23;;
20379;SDS011;10349;48.666;8.948;2023-01-05T11:33:56;6.73;;;1.43;;
20379;SDS011;10349;48.666;8.948;2023-01-05T11:36:24;4.40;;;1.30;;
20379;SDS011;10349;48.666;8.948;2023-01-05T11:38:54;5.27;;;1.47;;
20379;SDS011;10349;48.666;8.948;2023-01-05T11:41:22;1.60;;;1.37;;
20379;SDS011;10349;48.666;8.948;2023-01-05T11:43:48;7.73;;;1.67;;
20379;SDS011;10349;48.666;8.948;2023-01-05T11:46:16;4.27;;;1.70;;
20379;SDS011;10349;48.666;8.948;2023-01-05T11:48:53;2.13;;;1.60;;
20379;SDS011;10349;48.666;8.948;2023-01-05T11:51:38;5.87;;;2.10;;
20379;SDS011;10349;48.666;8.948;2023-01-05T11:54:05;2.33;;;1.80;;
20379;SDS011;10349;48.666;8.948;2023-01-05T11:57:13;9.03;;;2.40;;
20379;SDS011;10349;48.666;8.948;2023-01-05T11:59:40;4.87;;;2.07;;
20379;SDS011;10349;48.666;8.948;2023-01-05T12:08:13;6.23;;;2.13;;
20379;SDS011;10349;48.666;8.948;2023-01-05T12:13:19;6.33;;;2.37;;
20379;SDS011;10349;48.666;8.948;2023-01-05T12:18:44;3.50;;;2.43;;
20379;SDS011;10349;48.666;8.948;2023-01-05T12:21:42;6.70;;;3.67;;
20379;SDS011;10349;48.666;8.948;2023-01-05T12:24:38;7.20;;;1.83;;
20379;SDS011;10349;48.666;8.948;2023-01-05T12:33:22;7.33;;;1.97;;
20379;SDS011;10349;48.666;8.948;2023-01-05T12:36:16;4.10;;;1.77;;
20379;SDS011;10349;48.666;8.948;2023-01-05T12:38:56;5.03;;;1.90;;
20379;SDS011;10349;48.666;8.948;2023-01-05T12:41:46;7.43;;;1.37;;
20379;SDS011;10349;48.666;8.948;2023-01-05T12:50:18;5.53;;;1.80;;
20379;SDS011;10349;48.666;8.948;2023-01-05T12:52:50;2.13;;;1.43;;
20379;SDS011;10349;48.666;8.948;2023-01-05T12:55:24;4.03;;;2.00;;
20379;SDS011;10349;48.666;8.948;2023-01-05T12:57:57;6.40;;;1.90;;
20379;SDS011;10349;48.666;8.948;2023-01-05T13:00:30;9.60;;;1.70;;
20379;SDS011;10349;48.666;8.948;2023-01-05T13:03:03;4.10;;;1.83;;
20379;SDS011;10349;48.666;8.948;2023-01-05T13:08:25;3.40;;;1.27;;
20379;SDS011;10349;48.666;8.948;2023-01-05T13:13:45;2.03;;;1.83;;
20379;SDS011;10349;48.666;8.948;2023-01-05T13:16:20;2.33;;;1.40;;
20379;SDS011;10349;48.666;8.948;2023-01-05T13:18:55;8.07;;;2.13;;
20379;SDS011;10349;48.666;8.948;2023-01-05T13:21:30;3.00;;;2.00;;
20379;SDS011;10349;48.666;8.948;2023-01-05T13:23:58;5.03;;;2.03;;
20379;SDS011;10349;48.666;8.948;2023-01-05T13:26:27;3.10;;;2.20;;
20379;SDS011;10349;48.666;8.948;2023-01-05T13:28:55;5.80;;;2.67;;
20379;SDS011;10349;48.666;8.948;2023-01-05T13:31:29;5.73;;;2.77;;
20379;SDS011;10349;48.666;8.948;2023-01-05T13:43:06;4.70;;;1.97;;
20379;SDS011;10349;48.666;8.948;2023-01-05T13:53:51;5.53;;;2.10;;
20379;SDS011;10349;48.666;8.948;2023-01-05T13:56:23;6.67;;;2.50;;
20379;SDS011;10349;48.666;8.948;2023-01-05T13:58:57;8.07;;;1.97;;
20379;SDS011;10349;48.666;8.948;2023-01-05T14:04:14;1.87;;;1.43;;
20379;SDS011;10349;48.666;8.948;2023-01-05T14:06:43;2.93;;;2.73;;
20379;SDS011;10349;48.666;8.948;2023-01-05T14:25:54;2.53;;;2.13;;
20379;SDS011;10349;48.666;8.948;2023-01-05T14:39:01;7.83;;;2.90;;
20379;SDS011;10349;48.666;8.948;2023-01-05T14:41:31;5.50;;;3.17;;
20379;SDS011;10349;48.666;8.948;2023-01-05T14:43:59;4.93;;;1.67;;
20379;SDS011;10349;48.666;8.948;2023-01-05T14:46:26;4.07;;;1.60;;
20379;SDS011;10349;48.666;8.948;2023-01-05T14:49:02;5.57;;;1.60;;
20379;SDS011;10349;48.666;8.948;2023-01-05T14:51:32;8.53;;;2.70;;
20379;SDS011;10349;48.666;8.948;2023-01-05T14:54:00;3.40;;;1.80;;
20379;SDS011;10349;48.666;8.948;2023-01-05T14:56:28;6.57;;;2.40;;
20379;SDS011;10349;48.666;8.948;2023-01-05T15:01:52;5.17;;;1.53;;
20379;SDS011;10349;48.666;8.948;2023-01-05T15:04:32;4.17;;;1.70;;
20379;SDS011;10349;48.666;8.948;2023-01-05T15:09:54;4.20;;;1.80;;
20379;SDS011;10349;48.666;8.948;2023-01-05T15:20:41;2.53;;;2.00;;
20379;SDS011;10349;48.666;8.948;2023-01-05T15:26:29;4.10;;;1.73;;
20379;SDS011;10349;48.666;8.948;2023-01-05T15:32:15;6.87;;;2.17;;
20379;SDS011;10349;48.666;8.948;2023-01-05T15:37:28;6.00;;;2.03;;
20379;SDS011;10349;48.666;8.948;2023-01-05T15:39:59;2.33;;;1.90;;
20379;SDS011;10349;48.666;8.948;2023-01-05T15:42:35;2.90;;;1.83;;
20379;SDS011;10349;48.666;8.948;2023-01-05T15:45:27;6.03;;;2.23;;
20379;SDS011;10349;48.666;8.948;2023-01-05T15:48:08;4.93;;;1.80;;
20379;SDS011;10349;48.666;8.948;2023-01-05T15:50:47;3.70;;;2.17;;
20379;SDS011;10349;48.666;8.948;2023-01-05T15:53:21;2.00;;;1.87;;
20379;SDS011;10349;48.666;8.948;2023-01-05T15:55:47;12.57;;;1.97;;
20379;SDS011;10349;48.666;8.948;2023-01-05T15:58:16;3.07;;;2.50;;
20379;SDS011;10349;48.666;8.948;2023-01-05T16:00:42;3.40;;;1.90;;
20379;SDS011;10349;48.666;8.948;2023-01-05T16:03:27;2.17;;;1.80;;
20379;SDS011;10349;48.666;8.948;2023-01-05T16:05:55;6.77;;;2.30;;
20379;SDS011;10349;48.666;8.948;2023-01-05T16:08:23;9.93;;;2.40;;
20379;SDS011;10349;48.666;8.948;2023-01-05T16:10:50;7.77;;;4.73;;
20379;SDS011;10349;48.666;8.948;2023-01-05T16:13:29;8.07;;;4.77;;
20379;SDS011;10349;48.666;8.948;2023-01-05T16:16:02;6.90;;;3.70;;
20379;SDS011;10349;48.666;8.948;2023-01-05T16:18:34;5.30;;;3.33;;
20379;SDS011;10349;48.666;8.948;2023-01-05T16:21:09;4.77;;;3.43;;
20379;SDS011;10349;48.666;8.948;2023-01-05T16:23:54;7.37;;;2.47;;
20379;SDS011;10349;48.666;8.948;2023-01-05T16:26:30;4.07;;;2.97;;
20379;SDS011;10349;48.666;8.948;2023-01-05T16:28:59;4.67;;;3.80;;
20379;SDS011;10349;48.666;8.948;2023-01-05T16:31:31;6.20;;;4.63;;
20379;SDS011;10349;48.666;8.948;2023-01-05T16:34:02;3.47;;;2.53;;
20379;SDS011;10349;48.666;8.948;2023-01-05T16:36:35;5.90;;;2.97;;
20379;SDS011;10349;48.666;8.948;2023-01-05T16:39:10;6.40;;;2.70;;
20379;SDS011;10349;48.666;8.948;2023-01-05T16:41:45;6.60;;;3.30;;
20379;SDS011;10349;48.666;8.948;2023-01-05T16:44:30;5.53;;;2.23;;
20379;SDS011;10349;48.666;8.948;2023-01-05T16:47:06;5.63;;;2.87;;
20379;SDS011;10349;48.666;8.948;2023-01-05T16:49:34;8.80;;;2.33;;
20379;SDS011;10349;48.666;8.948;2023-01-05T16:52:06;3.20;;;2.10;;
20379;SDS011;10349;48.666;8.948;2023-01-05T16:54:34;9.83;;;2.80;;
20379;SDS011;10349;48.666;8.948;2023-01-05T16:57:48;4.60;;;1.60;;
20379;SDS011;10349;48.666;8.948;2023-01-05T16:59:55;7.70;;;2.23;;
20379;SDS011;10349;48.666;8.948;2023-01-05T17:02:28;6.47;;;2.30;;
20379;SDS011;10349;48.666;8.948;2023-01-05T17:05:24;3.37;;;1.93;;
20379;SDS011;10349;48.666;8.948;2023-01-05T17:08:00;6.13;;;2.13;;
20379;SDS011;10349;48.666;8.948;2023-01-05T17:10:31;2.20;;;2.10;;
20379;SDS011;10349;48.666;8.948;2023-01-05T17:13:02;3.23;;;2.20;;
20379;SDS011;10349;48.666;8.948;2023-01-05T17:15:34;7.03;;;3.30;;
20379;SDS011;10349;48.666;8.948;2023-01-05T17:18:00;4.43;;;3.53;;
20379;SDS011;10349;48.666;8.948;2023-01-05T17:20:46;4.70;;;3.40;;
20379;SDS011;10349;48.666;8.948;2023-01-05T17:25:56;8.20;;;4.27;;
20379;SDS011;10349;48.666;8.948;2023-01-05T17:28:24;4.33;;;2.80;;
20379;SDS011;10349;48.666;8.948;2023-01-05T17:30:50;5.50;;;2.97;;
20379;SDS011;10349;48.666;8.948;2023-01-05T17:33:16;4.53;;;3.70;;
20379;SDS011;10349;48.666;8.948;2023-01-05T17:35:43;10.30;;;3.80;;
20379;SDS011;10349;48.666;8.948;2023-01-05T17:38:10;3.60;;;2.77;;
20379;SDS011;10349;48.666;8.948;2023-01-05T17:40:36;5.83;;;3.00;;
20379;SDS011;10349;48.666;8.948;2023-01-05T17:43:02;8.00;;;3.13;;
20379;SDS011;10349;48.666;8.948;2023-01-05T17:45:28;4.90;;;3.07;;
20379;SDS011;10349;48.666;8.948;2023-01-05T17:48:09;5.70;;;3.47;;